createdAt,value
2019-03-30T00:03:58.009Z,101704.45
2019-03-30T00:09:01.592Z,101699.00
2019-03-30T00:14:05.040Z,101702.39
2019-03-30T00:19:08.479Z,101697.05
2019-03-30T00:24:11.949Z,101690.13
2019-03-30T00:29:15.379Z,101691.41
2019-03-30T00:34:18.811Z,101695.52
2019-03-30T00:39:22.239Z,101691.63
2019-03-30T00:44:25.686Z,101685.35
2019-03-30T00:49:29.145Z,101684.89
2019-03-30T00:54:32.611Z,101683.11
2019-03-30T00:59:36.066Z,101674.80
2019-03-30T01:04:39.514Z,101683.51
2019-03-30T01:09:42.975Z,101675.58
2019-03-30T01:14:46.404Z,101672.36
2019-03-30T01:20:02.406Z,101672.78
2019-03-30T01:24:54.994Z,101669.74
2019-03-30T01:29:58.461Z,101663.11
2019-03-30T01:35:01.942Z,101656.10
2019-03-30T01:40:08.292Z,101658.52
2019-03-30T01:45:12.602Z,101658.44
2019-03-30T01:50:17.742Z,101663.10
2019-03-30T01:55:21.325Z,101662.62
2019-03-30T02:00:25.449Z,101656.02
2019-03-30T02:05:28.883Z,101647.37
2019-03-30T02:10:38.421Z,101641.73
2019-03-30T02:15:41.914Z,101638.48
2019-03-30T02:20:47.078Z,101633.13
2019-03-30T02:25:50.486Z,101627.09
2019-03-30T02:30:53.921Z,101625.32
2019-03-30T02:35:57.384Z,101626.19
2019-03-30T02:41:00.809Z,101625.80
2019-03-30T02:46:04.350Z,101614.43
2019-03-30T02:51:07.744Z,101610.52
2019-03-30T02:56:11.165Z,101611.92
2019-03-30T03:01:14.604Z,101604.91
2019-03-30T03:06:18.012Z,101593.77
2019-03-30T03:11:21.435Z,101594.58
2019-03-30T03:16:27.541Z,101585.69
2019-03-30T03:21:30.708Z,101579.09
2019-03-30T03:26:34.192Z,101582.03
2019-03-30T03:31:37.650Z,101582.01
2019-03-30T03:36:41.077Z,101575.71
2019-03-30T03:41:44.511Z,101570.75
2019-03-30T03:46:47.947Z,101560.38
2019-03-30T03:51:51.373Z,101558.68
2019-03-30T03:56:56.052Z,101554.27
2019-03-30T04:02:02.179Z,101554.23
2019-03-30T04:07:05.742Z,101542.75
2019-03-30T04:12:10.937Z,101533.41
2019-03-30T04:17:14.424Z,101525.83
2019-03-30T04:22:17.838Z,101530.97
2019-03-30T04:27:21.272Z,101526.10
2019-03-30T04:32:24.708Z,101522.56
2019-03-30T04:37:28.765Z,101524.19
2019-03-30T04:42:32.133Z,101518.16
2019-03-30T04:47:35.571Z,101518.11
2019-03-30T04:52:39.016Z,101504.64
2019-03-30T04:57:42.447Z,101503.67
2019-03-30T05:02:45.859Z,101500.58
2019-03-30T05:07:49.578Z,101503.51
2019-03-30T05:12:53.013Z,101505.65
2019-03-30T05:17:56.426Z,101504.68
2019-03-30T05:22:59.856Z,101511.13
2019-03-30T05:28:03.286Z,101506.52
2019-03-30T05:33:06.778Z,101508.69
2019-03-30T05:38:10.231Z,101504.05
2019-03-30T05:43:13.664Z,101503.63
2019-03-30T05:48:17.095Z,101501.89
2019-03-30T05:53:20.540Z,101499.34
2019-03-30T05:58:24.009Z,101502.86
2019-03-30T06:03:27.422Z,101496.14
2019-03-30T06:08:30.943Z,101495.60
2019-03-30T06:13:34.370Z,101491.33
2019-03-30T06:18:37.796Z,101488.97
2019-03-30T06:23:41.297Z,101493.52
2019-03-30T06:28:44.748Z,101493.27
2019-03-30T06:33:48.165Z,101480.89
2019-03-30T06:38:51.578Z,101484.62
2019-03-30T06:43:55.011Z,101478.32
2019-03-30T06:48:58.435Z,101473.34
2019-03-30T06:54:01.847Z,101480.50
2019-03-30T06:59:05.263Z,101481.13
2019-03-30T07:04:11.259Z,101477.95
2019-03-30T07:09:14.516Z,101474.81
2019-03-30T07:14:18.298Z,101472.53
2019-03-30T07:19:24.008Z,101471.43
2019-03-30T07:24:27.426Z,101469.52
2019-03-30T07:29:30.863Z,101474.14
2019-03-30T07:34:34.292Z,101467.87
2019-03-30T07:39:37.806Z,101467.59
2019-03-30T07:44:41.523Z,101460.87
2019-03-30T07:49:44.959Z,101465.36
2019-03-30T07:54:48.448Z,101462.39
2019-03-30T07:59:51.841Z,101457.63
2019-03-30T08:04:55.275Z,101462.80
2019-03-30T08:09:58.701Z,101453.94
2019-03-30T08:15:02.124Z,101441.52
2019-03-30T08:20:07.819Z,101435.95
2019-03-30T08:25:11.374Z,101440.52
2019-03-30T08:30:15.976Z,101443.16
2019-03-30T08:35:19.387Z,101440.67
2019-03-30T08:40:22.827Z,101443.97
2019-03-30T08:45:26.999Z,101434.03
2019-03-30T08:50:30.384Z,101438.44
2019-03-30T08:55:33.825Z,101434.19
2019-03-30T09:00:39.194Z,101418.63
2019-03-30T09:05:42.617Z,101413.16
2019-03-30T09:10:46.043Z,101405.10
2019-03-30T09:15:49.545Z,101403.50
2019-03-30T09:20:52.973Z,101410.77
2019-03-30T09:25:56.388Z,101396.30
2019-03-30T09:30:59.829Z,101400.08
2019-03-30T09:36:03.323Z,101386.72
2019-03-30T09:41:06.781Z,101387.22
2019-03-30T09:46:10.258Z,101385.13
2019-03-30T09:51:13.726Z,101383.84
2019-03-30T09:56:17.161Z,101380.20
2019-03-30T10:01:20.604Z,101365.45
2019-03-30T10:06:33.815Z,101362.58
2019-03-30T10:11:29.193Z,101353.53
2019-03-30T10:16:32.634Z,101350.91
2019-03-30T10:21:36.127Z,101344.02
2019-03-30T10:26:39.571Z,101335.09
2019-03-30T10:31:42.992Z,101335.09
2019-03-30T10:36:46.437Z,101327.57
2019-03-30T10:41:49.869Z,101323.41
2019-03-30T10:46:53.304Z,101320.49
2019-03-30T10:51:56.720Z,101314.16
2019-03-30T10:57:00.141Z,101306.20
2019-03-30T11:02:03.584Z,101298.77
2019-03-30T11:07:07.035Z,101302.23
2019-03-30T11:12:10.758Z,101296.52
2019-03-30T11:17:14.179Z,101290.94
2019-03-30T11:22:18.396Z,101278.38
2019-03-30T11:27:21.818Z,101272.36
2019-03-30T11:32:25.235Z,101270.27
2019-03-30T11:37:28.702Z,101263.20
2019-03-30T11:42:32.131Z,101259.73
2019-03-30T11:47:35.553Z,101247.03
2019-03-30T11:52:38.976Z,101245.31
2019-03-30T11:57:42.464Z,101245.30
2019-03-30T12:02:46.076Z,101230.72
2019-03-30T12:07:49.509Z,101222.74
2019-03-30T12:12:53.030Z,101226.28
2019-03-30T12:17:56.440Z,101214.66
2019-03-30T12:22:59.863Z,101223.70
2019-03-30T12:28:03.278Z,101218.28
2019-03-30T12:33:06.747Z,101216.22
2019-03-30T12:38:10.170Z,101213.72
2019-03-30T12:43:13.684Z,101201.70
2019-03-30T12:48:17.235Z,101207.03
2019-03-30T12:53:20.699Z,101191.24
2019-03-30T12:58:24.142Z,101186.95
2019-03-30T13:03:29.105Z,101182.42
2019-03-30T13:08:32.543Z,101178.05
2019-03-30T13:13:37.060Z,101180.51
2019-03-30T13:18:40.530Z,101191.55
2019-03-30T13:23:43.977Z,101187.31
2019-03-30T13:28:47.427Z,101192.44
2019-03-30T13:33:50.849Z,101190.47
2019-03-30T13:38:54.295Z,101183.95
2019-03-30T13:43:57.710Z,101192.17
2019-03-30T13:49:01.146Z,101187.69
2019-03-30T13:54:04.707Z,101192.11
2019-03-30T13:59:08.127Z,101190.64
2019-03-30T14:04:11.561Z,101184.72
2019-03-30T14:09:14.991Z,101187.80
2019-03-30T14:14:18.559Z,101186.75
2019-03-30T14:19:21.958Z,101171.61
2019-03-30T14:24:25.387Z,101175.63
2019-03-30T14:29:29.719Z,101172.29
2019-03-30T14:34:33.240Z,101176.03
2019-03-30T14:39:36.671Z,101171.63
2019-03-30T14:44:40.096Z,101166.89
2019-03-30T14:49:43.607Z,101166.77
2019-03-30T14:54:53.122Z,101158.88
2019-03-30T14:59:52.202Z,101163.66
2019-03-30T15:04:55.679Z,101153.06
2019-03-30T15:09:59.131Z,101145.66
2019-03-30T15:15:02.652Z,101149.64
2019-03-30T15:20:10.292Z,101153.97
2019-03-30T15:25:13.729Z,101152.02
2019-03-30T15:30:17.863Z,101142.23
2019-03-30T15:35:21.446Z,101142.23
2019-03-30T15:40:25.046Z,101138.84
2019-03-30T15:45:28.692Z,101125.81
2019-03-30T15:50:32.139Z,101122.82
2019-03-30T15:55:38.166Z,101122.82
2019-03-30T16:00:42.947Z,101131.52
2019-03-30T16:05:47.431Z,101131.52
2019-03-30T16:10:52.463Z,101137.35
2019-03-30T16:15:56.074Z,101133.45
2019-03-30T16:20:59.594Z,101137.69
2019-03-30T16:26:03.045Z,101122.63
2019-03-30T16:31:06.453Z,101122.63
2019-03-30T16:36:09.878Z,101141.70
2019-03-30T16:41:13.325Z,101137.46
2019-03-30T16:46:19.260Z,101145.34
2019-03-30T16:51:22.695Z,101138.70
2019-03-30T16:56:26.128Z,101141.65
2019-03-30T17:01:29.635Z,101134.77
2019-03-30T17:06:33.059Z,101132.45
2019-03-30T17:11:36.512Z,101129.56
2019-03-30T17:16:39.945Z,101129.34
2019-03-30T17:21:43.356Z,101133.08
2019-03-30T17:26:46.864Z,101131.75
2019-03-30T17:31:50.320Z,101129.58
2019-03-30T17:36:54.807Z,101133.34
2019-03-30T17:41:58.331Z,101128.51
2019-03-30T17:47:01.765Z,101129.53
2019-03-30T17:52:05.211Z,101129.75
2019-03-30T17:57:08.639Z,101134.84
2019-03-30T18:02:12.165Z,101139.02
2019-03-30T18:07:15.646Z,101147.62
2019-03-30T18:12:20.572Z,101152.02
2019-03-30T18:17:24.230Z,101156.45
2019-03-30T18:22:27.717Z,101156.08
2019-03-30T18:27:31.098Z,101153.02
2019-03-30T18:32:35.047Z,101160.09
2019-03-30T18:37:39.575Z,101168.42
2019-03-30T18:42:43.292Z,101174.03
2019-03-30T18:47:46.851Z,101180.66
2019-03-30T18:52:50.863Z,101183.39
2019-03-30T18:57:54.453Z,101188.69
2019-03-30T19:02:58.078Z,101193.22
2019-03-30T19:08:02.636Z,101192.76
2019-03-30T19:13:06.072Z,101192.74
2019-03-30T19:18:09.482Z,101201.38
2019-03-30T19:23:12.918Z,101203.89
2019-03-30T19:28:16.372Z,101196.97
2019-03-30T19:33:19.823Z,101204.56
2019-03-30T19:38:23.258Z,101203.72
2019-03-30T19:43:26.800Z,101202.63
2019-03-30T19:48:30.480Z,101203.58
2019-03-30T19:53:34.121Z,101208.05
2019-03-30T19:58:37.543Z,101214.66
2019-03-30T20:03:40.996Z,101212.56
2019-03-30T20:08:44.510Z,101214.45
2019-03-30T20:13:48.118Z,101209.27
2019-03-30T20:18:51.577Z,101212.80
2019-03-30T20:23:55.076Z,101215.09
2019-03-30T20:28:58.526Z,101211.69
2019-03-30T20:34:02.049Z,101216.06
2019-03-30T20:39:08.421Z,101223.92
2019-03-30T20:44:11.868Z,101219.95
2019-03-30T20:49:15.370Z,101223.47
2019-03-30T20:54:18.804Z,101220.83
2019-03-30T20:59:22.296Z,101224.33
2019-03-30T21:04:25.871Z,101222.12
2019-03-30T21:09:29.317Z,101221.30
2019-03-30T21:14:32.792Z,101228.30
2019-03-30T21:19:36.705Z,101235.25
2019-03-30T21:24:40.162Z,101228.75
2019-03-30T21:29:54.601Z,101236.59
2019-03-30T21:34:48.760Z,101243.09
2019-03-30T21:39:52.268Z,101238.30
2019-03-30T21:44:55.691Z,101241.00
2019-03-30T21:49:59.115Z,101233.16
2019-03-30T21:55:02.553Z,101227.92
2019-03-30T22:00:11.128Z,101235.38
2019-03-30T22:05:14.543Z,101234.56
2019-03-30T22:10:21.027Z,101238.98
2019-03-30T22:15:26.752Z,101246.38
2019-03-30T22:20:30.203Z,101245.52
2019-03-30T22:25:33.620Z,101254.68
2019-03-30T22:30:37.041Z,101252.52
2019-03-30T22:35:40.511Z,101252.96
2019-03-30T22:40:43.903Z,101258.59
2019-03-30T22:45:47.402Z,101249.91
2019-03-30T22:50:50.825Z,101252.55
2019-03-30T22:55:54.945Z,101249.92
2019-03-30T23:01:02.707Z,101247.28
2019-03-30T23:06:06.231Z,101252.05
2019-03-30T23:11:09.661Z,101252.05
2019-03-30T23:16:13.075Z,101242.94
2019-03-30T23:21:16.512Z,101244.21
2019-03-30T23:26:19.936Z,101242.93
2019-03-30T23:31:23.376Z,101234.26
2019-03-30T23:36:26.826Z,101248.98
2019-03-30T23:41:30.282Z,101249.40
2019-03-30T23:46:33.707Z,101233.78
2019-03-30T23:51:37.119Z,101233.36
2019-03-30T23:56:40.588Z,101242.89
